Time;durP1;ratioP1;P1;durP2;ratioP2;P2;SDS_P1;SDS_P2;PMS_P1;PMS_P2;Temp;Humidity;BMP_temperature;BMP_pressure;BME280_temperature;BME280_humidity;BME280_pressure;Samples;Min_cycle;Max_cycle;Signal;HPM_P1;HPM_P2
2023/10/18 00:00:46;;;;;;;0.60;0.60;;;4.10;99.90;;;;;;1900596;74;25653;-87
2023/10/18 00:03:36;;;;;;;0.73;0.60;;;4.20;99.90;;;;;;1891621;74;25283;-88
2023/10/18 00:06:26;;;;;;;0.87;0.60;;;4.20;99.90;;;;;;1904888;73;25310;-87
2023/10/18 00:09:45;;;;;;;0.50;0.50;;;4.30;99.90;;;;;;1863177;76;25768;-87
2023/10/18 00:12:33;;;;;;;2.43;0.60;;;4.30;99.90;;;;;;1864906;75;25250;-87
2023/10/18 00:15:20;;;;;;;1.93;0.60;;;4.40;99.90;;;;;;1843878;76;25819;-89
2023/10/18 00:18:11;;;;;;;0.90;0.37;;;4.40;99.90;;;;;;1833098;76;25309;-87
2023/10/18 00:21:03;;;;;;;0.60;0.60;;;4.40;99.90;;;;;;1857539;75;25308;-87
2023/10/18 00:23:51;;;;;;;0.47;0.47;;;4.60;99.90;;;;;;1846949;76;25278;-87
2023/10/18 00:26:41;;;;;;;2.30;0.50;;;4.70;99.90;;;;;;1866888;75;25692;-89
2023/10/18 00:29:29;;;;;;;1.30;0.60;;;4.80;99.90;;;;;;1861254;75;25710;-89
2023/10/18 00:32:19;;;;;;;1.43;0.67;;;4.80;99.90;;;;;;1863490;75;25730;-87
2023/10/18 00:35:18;;;;;;;3.40;0.70;;;4.80;99.90;;;;;;1862261;75;25352;-88
2023/10/18 00:38:04;;;;;;;0.63;0.40;;;5.00;99.90;;;;;;1859004;75;25462;-88
2023/10/18 00:40:56;;;;;;;0.60;0.60;;;5.00;99.90;;;;;;1853332;75;25188;-88
2023/10/18 00:46:26;;;;;;;0.40;0.40;;;4.90;99.90;;;;;;1926607;72;27056;-87
2023/10/18 00:49:14;;;;;;;1.40;0.70;;;4.90;99.90;;;;;;1856421;75;25283;-87
2023/10/18 00:52:03;;;;;;;2.20;0.60;;;4.90;99.90;;;;;;1899496;73;25232;-87
2023/10/18 00:54:53;;;;;;;0.40;0.40;;;4.90;99.90;;;;;;1864734;75;25273;-88
2023/10/18 00:57:44;;;;;;;0.60;0.60;;;4.80;99.90;;;;;;1833510;76;25234;-88
2023/10/18 01:00:33;;;;;;;0.77;0.53;;;4.80;99.90;;;;;;1903224;73;25710;-88
2023/10/18 01:03:32;;;;;;;1.00;0.60;;;4.70;99.90;;;;;;1916257;73;25328;-88
2023/10/18 01:06:24;;;;;;;0.40;0.40;;;4.70;99.90;;;;;;1872609;75;25259;-88
2023/10/18 01:09:15;;;;;;;0.77;0.60;;;4.60;99.90;;;;;;1850283;76;25212;-88
2023/10/18 01:12:06;;;;;;;0.50;0.50;;;4.60;99.90;;;;;;1904864;74;25249;-88
2023/10/18 01:14:57;;;;;;;0.40;0.40;;;4.60;99.90;;;;;;1870545;75;25186;-88
2023/10/18 01:17:47;;;;;;;0.50;0.50;;;4.60;99.90;;;;;;1850182;77;25302;-88
2023/10/18 01:20:39;;;;;;;0.40;0.40;;;4.70;99.90;;;;;;1857956;76;25356;-88
2023/10/18 01:23:27;;;;;;;0.50;0.50;;;4.60;99.90;;;;;;1826504;77;25422;-88
2023/10/18 01:26:16;;;;;;;0.50;0.50;;;4.70;99.90;;;;;;1848513;76;25531;-88
2023/10/18 01:29:08;;;;;;;0.63;0.37;;;4.80;99.90;;;;;;1901266;74;25171;-88
2023/10/18 01:34:37;;;;;;;1.33;0.63;;;4.90;99.90;;;;;;1928580;72;27594;-87
2023/10/18 01:37:26;;;;;;;0.40;0.40;;;5.00;99.90;;;;;;1925141;73;25204;-87
2023/10/18 01:40:22;;;;;;;0.50;0.50;;;5.00;99.90;;;;;;1915724;73;25262;-89
2023/10/18 01:43:11;;;;;;;1.00;0.50;;;4.90;99.90;;;;;;1893577;73;25763;-87
2023/10/18 01:46:01;;;;;;;0.90;0.40;;;4.90;99.90;;;;;;1903549;73;25171;-89
2023/10/18 01:48:51;;;;;;;2.00;0.50;;;5.00;99.90;;;;;;1891983;75;25707;-87
2023/10/18 01:51:42;;;;;;;1.90;0.50;;;5.00;99.90;;;;;;1885071;73;25288;-87
2023/10/18 01:54:33;;;;;;;0.40;0.40;;;5.00;99.90;;;;;;1896329;75;25313;-88
2023/10/18 01:57:22;;;;;;;0.40;0.40;;;5.00;99.90;;;;;;1885399;75;25255;-87
2023/10/18 02:00:18;;;;;;;0.37;0.37;;;5.00;99.90;;;;;;1884147;75;25310;-88
2023/10/18 02:03:06;;;;;;;1.30;0.57;;;5.00;99.90;;;;;;1891061;75;25727;-87
2023/10/18 02:05:54;;;;;;;0.50;0.50;;;4.90;99.90;;;;;;1889791;75;25256;-87
2023/10/18 02:08:43;;;;;;;0.30;0.30;;;4.80;99.90;;;;;;1882021;73;25252;-87
2023/10/18 02:11:36;;;;;;;0.47;0.40;;;4.90;99.90;;;;;;1884938;73;25227;-87
2023/10/18 02:14:25;;;;;;;3.70;0.60;;;4.90;99.90;;;;;;1881954;75;25317;-87
2023/10/18 02:17:14;;;;;;;0.63;0.40;;;4.80;99.90;;;;;;1853493;75;25260;-87
2023/10/18 02:20:13;;;;;;;1.70;0.33;;;4.80;99.90;;;;;;1831563;76;25284;-87
2023/10/18 02:23:01;;;;;;;0.77;0.50;;;4.80;99.90;;;;;;1827802;77;25347;-89
2023/10/18 02:28:30;;;;;;;0.37;0.37;;;4.60;99.90;;;;;;1930526;72;27074;-85
2023/10/18 02:31:21;;;;;;;0.97;0.40;;;4.60;99.90;;;;;;1899504;75;25357;-88
2023/10/18 02:34:14;;;;;;;0.50;0.50;;;4.50;99.90;;;;;;1872405;75;25274;-90
2023/10/18 02:37:04;;;;;;;0.30;0.30;;;4.40;99.90;;;;;;1847433;76;25316;-88
2023/10/18 02:39:52;;;;;;;0.40;0.40;;;4.40;99.90;;;;;;1909819;73;25273;-88
2023/10/18 02:42:43;;;;;;;1.03;0.50;;;4.30;99.90;;;;;;1843915;76;25234;-88
2023/10/18 02:45:32;;;;;;;0.53;0.53;;;4.30;99.90;;;;;;1789355;78;25398;-88
2023/10/18 02:48:26;;;;;;;0.50;0.50;;;4.20;99.90;;;;;;1793061;78;25770;-88
2023/10/18 02:51:22;;;;;;;3.90;0.57;;;4.20;99.90;;;;;;1862464;75;25293;-88
2023/10/18 02:54:16;;;;;;;3.50;0.33;;;4.20;99.90;;;;;;1860091;75;25250;-88
2023/10/18 02:57:01;;;;;;;3.03;0.40;;;4.30;99.90;;;;;;1858007;75;25303;-88
2023/10/18 02:59:50;;;;;;;1.20;0.40;;;4.30;99.90;;;;;;1863217;76;25196;-88
2023/10/18 03:05:24;;;;;;;0.40;0.40;;;4.10;99.90;;;;;;1949836;72;26933;-87
2023/10/18 03:10:52;;;;;;;0.40;0.40;;;3.90;99.90;;;;;;1935755;72;27473;-87
2023/10/18 03:13:44;;;;;;;1.07;0.50;;;3.80;99.90;;;;;;1909502;74;25944;-87
2023/10/18 03:16:40;;;;;;;0.50;0.30;;;3.80;99.90;;;;;;1903412;73;25296;-88
2023/10/18 03:19:31;;;;;;;0.30;0.30;;;3.70;99.90;;;;;;1886549;73;25341;-87
2023/10/18 03:22:20;;;;;;;0.30;0.30;;;3.60;99.90;;;;;;1897911;75;25187;-87
2023/10/18 03:25:14;;;;;;;0.50;0.50;;;3.60;99.90;;;;;;1912629;73;25320;-88
2023/10/18 03:28:04;;;;;;;0.93;0.40;;;3.60;99.90;;;;;;1914637;73;25219;-88
2023/10/18 03:30:50;;;;;;;0.30;0.30;;;3.60;99.90;;;;;;1897606;74;25321;-88
2023/10/18 03:33:39;;;;;;;0.40;0.40;;;3.70;99.90;;;;;;1908330;73;25704;-88
2023/10/18 03:36:31;;;;;;;0.40;0.40;;;3.70;99.90;;;;;;1909289;73;25328;-87
2023/10/18 03:42:26;;;;;;;1.00;0.40;;;3.80;99.90;;;;;;1954206;72;26982;-88
2023/10/18 03:45:10;;;;;;;1.60;0.40;;;3.80;99.90;;;;;;1899792;74;25176;-88
2023/10/18 03:47:58;;;;;;;1.80;0.40;;;3.80;99.90;;;;;;1905485;75;25263;-89
2023/10/18 03:50:47;;;;;;;0.40;0.40;;;3.70;99.90;;;;;;1901135;75;25286;-88
2023/10/18 03:53:36;;;;;;;3.70;0.50;;;3.70;99.90;;;;;;1902775;75;25724;-88
2023/10/18 03:59:19;;;;;;;1.50;0.40;;;3.70;99.90;;;;;;1931540;72;27125;-87
2023/10/18 04:04:57;;;;;;;0.40;0.40;;;3.60;99.90;;;;;;1945947;72;27077;-87
2023/10/18 04:07:42;;;;;;;0.40;0.40;;;3.60;99.90;;;;;;1871137;76;25246;-89
2023/10/18 04:10:31;;;;;;;0.40;0.40;;;3.70;99.90;;;;;;1919929;73;25265;-87
2023/10/18 04:13:22;;;;;;;0.33;0.33;;;3.70;99.90;;;;;;1918026;73;25395;-87
2023/10/18 04:16:17;;;;;;;0.30;0.30;;;3.60;99.90;;;;;;1916196;75;25298;-89
2023/10/18 04:19:07;;;;;;;0.70;0.40;;;3.70;99.90;;;;;;1920032;73;25266;-89
2023/10/18 04:21:55;;;;;;;0.70;0.40;;;3.80;99.90;;;;;;1931505;73;25667;-89
2023/10/18 04:24:45;;;;;;;0.30;0.30;;;3.80;99.90;;;;;;1926727;73;25163;-89
2023/10/18 04:27:33;;;;;;;0.90;0.60;;;3.70;99.90;;;;;;1917915;73;25150;-90
2023/10/18 04:30:23;;;;;;;0.50;0.50;;;3.70;99.90;;;;;;1930674;73;25234;-87
2023/10/18 04:33:24;;;;;;;1.10;0.40;;;3.60;99.90;;;;;;1923426;73;25783;-89
2023/10/18 04:36:11;;;;;;;0.30;0.30;;;3.60;99.90;;;;;;1920528;73;25289;-89
2023/10/18 04:39:05;;;;;;;2.83;0.47;;;3.50;99.90;;;;;;1917002;73;26216;-89
2023/10/18 04:41:52;;;;;;;0.40;0.40;;;3.60;99.90;;;;;;1866197;76;25762;-89
2023/10/18 04:44:47;;;;;;;0.40;0.40;;;3.70;99.90;;;;;;1912080;73;25235;-92
2023/10/18 04:47:33;;;;;;;0.40;0.40;;;3.70;99.90;;;;;;1910333;73;25278;-88
2023/10/18 04:50:29;;;;;;;0.73;0.60;;;3.80;99.90;;;;;;1911599;73;25309;-88
2023/10/18 04:55:53;;;;;;;0.50;0.50;;;3.70;99.90;;;;;;1922444;72;27112;-87
2023/10/18 04:58:42;;;;;;;0.87;0.50;;;3.70;99.90;;;;;;1913697;73;25227;-89
2023/10/18 05:01:36;;;;;;;0.70;0.50;;;3.70;99.90;;;;;;1918910;73;25173;-88
2023/10/18 05:04:29;;;;;;;0.80;0.50;;;3.70;99.90;;;;;;1869448;75;25417;-89
2023/10/18 05:07:16;;;;;;;0.60;0.60;;;3.60;99.90;;;;;;1850611;76;25303;-88
2023/10/18 05:10:14;;;;;;;0.60;0.60;;;3.50;99.90;;;;;;1926289;73;25168;-88
2023/10/18 05:13:07;;;;;;;0.40;0.40;;;3.50;99.90;;;;;;1887979;75;25250;-88
2023/10/18 05:15:53;;;;;;;1.73;0.50;;;3.50;99.90;;;;;;1827543;77;25310;-88
2023/10/18 05:18:44;;;;;;;0.87;0.40;;;3.50;99.90;;;;;;1928157;73;25842;-88
2023/10/18 05:21:38;;;;;;;3.80;0.70;;;3.50;99.90;;;;;;1872880;75;25285;-88
2023/10/18 05:24:23;;;;;;;0.40;0.40;;;3.40;99.90;;;;;;1834794;76;25284;-88
2023/10/18 05:29:58;;;;;;;0.53;0.53;;;3.40;99.90;;;;;;1949263;72;27034;-87
2023/10/18 05:33:02;;;;;;;0.60;0.60;;;3.50;99.90;;;;;;1891669;74;25285;-87
2023/10/18 05:35:43;;;;;;;1.10;1.00;;;3.40;99.90;;;;;;1898587;75;25505;-87
2023/10/18 05:41:21;;;;;;;0.77;0.60;;;3.30;99.90;;;;;;1928174;72;26988;-87
2023/10/18 05:44:05;;;;;;;0.70;0.70;;;3.20;99.90;;;;;;1884028;73;25219;-87
2023/10/18 05:46:53;;;;;;;0.60;0.60;;;3.10;99.90;;;;;;1895148;73;25268;-87
2023/10/18 05:52:38;;;;;;;0.40;0.40;;;2.90;99.90;;;;;;1941174;72;26581;-87
2023/10/18 05:55:30;;;;;;;0.40;0.40;;;2.90;99.90;;;;;;1916816;73;25203;-87
2023/10/18 05:58:26;;;;;;;2.50;0.60;;;2.90;99.90;;;;;;1920009;73;25360;-87
2023/10/18 06:01:19;;;;;;;1.03;0.70;;;2.80;99.90;;;;;;1924377;73;25222;-88
2023/10/18 06:04:06;;;;;;;0.70;0.70;;;2.70;99.90;;;;;;1930956;73;25273;-87
2023/10/18 06:06:58;;;;;;;0.53;0.53;;;2.60;99.90;;;;;;1917296;73;25241;-87
2023/10/18 06:09:47;;;;;;;5.50;1.00;;;2.60;99.90;;;;;;1945168;73;25326;-89
2023/10/18 06:12:40;;;;;;;3.43;0.83;;;2.60;99.90;;;;;;1929356;73;25703;-89
2023/10/18 06:18:16;;;;;;;3.03;1.40;;;2.60;99.90;;;;;;1958075;72;27624;-87
2023/10/18 06:21:06;;;;;;;3.37;1.43;;;2.60;99.90;;;;;;1930051;73;25183;-87
2023/10/18 06:23:55;;;;;;;1.10;1.00;;;2.70;99.90;;;;;;1938393;73;25225;-87
2023/10/18 06:26:44;;;;;;;0.70;0.70;;;2.70;99.90;;;;;;1904188;75;25310;-87
2023/10/18 06:29:35;;;;;;;0.80;0.70;;;2.80;99.90;;;;;;1896888;75;25252;-89
2023/10/18 06:35:15;;;;;;;1.80;0.77;;;2.90;99.90;;;;;;1936033;72;26982;-87
2023/10/18 06:38:02;;;;;;;2.93;0.50;;;2.90;99.90;;;;;;1860348;76;25189;-87
2023/10/18 06:40:53;;;;;;;1.43;0.63;;;3.00;99.90;;;;;;1833114;77;25297;-87
2023/10/18 06:43:42;;;;;;;1.53;0.60;;;3.00;99.90;;;;;;1887737;74;25708;-87
2023/10/18 06:46:31;;;;;;;0.57;0.57;;;3.20;99.90;;;;;;1885083;75;25227;-89
2023/10/18 06:49:19;;;;;;;0.87;0.60;;;3.30;99.90;;;;;;1889823;75;25236;-89
2023/10/18 06:52:08;;;;;;;1.40;0.70;;;3.50;99.90;;;;;;1887377;75;25274;-89
2023/10/18 06:54:59;;;;;;;3.10;0.57;;;3.60;99.90;;;;;;1907536;75;25786;-89
2023/10/18 06:57:49;;;;;;;0.50;0.50;;;3.70;99.90;;;;;;1896688;75;25222;-89
2023/10/18 07:03:25;;;;;;;1.00;0.60;;;3.80;99.90;;;;;;1935452;72;27115;-87
2023/10/18 07:06:18;;;;;;;1.43;0.50;;;3.90;99.90;;;;;;1914317;73;25250;-87
2023/10/18 07:09:24;;;;;;;2.23;0.57;;;4.00;99.90;;;;;;1917066;73;25263;-89
2023/10/18 07:12:04;;;;;;;0.50;0.50;;;4.20;99.90;;;;;;1876054;75;25338;-87
2023/10/18 07:14:53;;;;;;;1.33;0.57;;;4.20;99.90;;;;;;1836165;76;25755;-87
2023/10/18 07:17:44;;;;;;;0.40;0.40;;;4.60;99.90;;;;;;1839803;76;25702;-87
2023/10/18 07:23:26;;;;;;;0.47;0.47;;;5.00;99.90;;;;;;1946938;72;27271;-87
2023/10/18 07:26:14;;;;;;;2.20;0.70;;;5.20;99.90;;;;;;1948373;72;25172;-89
2023/10/18 07:29:06;;;;;;;0.80;0.60;;;5.50;99.90;;;;;;1947788;72;25661;-87
2023/10/18 07:31:59;;;;;;;0.57;0.33;;;5.70;99.90;;;;;;1947691;72;25822;-88
2023/10/18 07:34:45;;;;;;;2.67;0.60;;;6.00;99.90;;;;;;1946912;72;25281;-87
2023/10/18 07:37:41;;;;;;;2.10;0.40;;;6.00;99.90;;;;;;1944154;72;25234;-89
2023/10/18 07:40:33;;;;;;;1.23;0.70;;;6.00;99.90;;;;;;1951911;72;25144;-89
2023/10/18 07:46:05;;;;;;;0.57;0.50;;;6.10;99.90;;;;;;1944905;72;26503;-87
2023/10/18 07:48:53;;;;;;;1.80;0.47;;;6.10;99.90;;;;;;1894303;73;25613;-87
2023/10/18 07:51:49;;;;;;;0.70;0.40;;;6.20;99.90;;;;;;1907042;75;25705;-89
2023/10/18 07:54:38;;;;;;;0.40;0.40;;;6.20;99.90;;;;;;1886680;75;25163;-87
2023/10/18 07:57:33;;;;;;;0.50;0.50;;;6.50;99.90;;;;;;1889770;73;25238;-89
2023/10/18 08:00:22;;;;;;;0.70;0.47;;;6.30;99.90;;;;;;1904712;73;25266;-87
2023/10/18 08:05:51;;;;;;;0.50;0.50;;;6.40;99.90;;;;;;1923149;72;27120;-87
2023/10/18 08:11:20;;;;;;;1.47;0.60;;;6.40;99.90;;;;;;1928117;72;27649;-87
2023/10/18 08:14:16;;;;;;;0.73;0.50;;;6.50;99.90;;;;;;1876553;75;25778;-87
2023/10/18 08:20:17;;;;;;;0.53;0.53;;;6.60;99.90;;;;;;1948102;71;26922;-87
2023/10/18 08:22:47;;;;;;;0.30;0.30;;;6.60;99.90;;;;;;1933507;72;25448;-87
2023/10/18 08:25:36;;;;;;;0.50;0.50;;;6.80;99.90;;;;;;1955440;72;25243;-89
2023/10/18 08:28:25;;;;;;;0.20;0.20;;;6.80;99.90;;;;;;1929621;73;25201;-89
2023/10/18 08:31:17;;;;;;;0.73;0.70;;;7.20;99.90;;;;;;1929449;72;25668;-87
2023/10/18 08:34:06;;;;;;;0.40;0.40;;;7.20;99.90;;;;;;1945123;73;25241;-88
2023/10/18 08:37:02;;;;;;;0.87;0.50;;;7.50;99.90;;;;;;1928120;73;25228;-88
2023/10/18 08:39:55;;;;;;;0.40;0.40;;;7.60;99.90;;;;;;1933492;72;25334;-89
2023/10/18 08:46:05;;;;;;;0.40;0.40;;;7.80;99.90;;;;;;1970541;71;27007;-88
2023/10/18 08:48:54;;;;;;;1.17;0.40;;;7.80;99.90;;;;;;1988154;71;25247;-89
2023/10/18 08:51:50;;;;;;;0.50;0.50;;;7.90;99.90;;;;;;2005313;71;25153;-89
2023/10/18 08:54:40;;;;;;;0.53;0.53;;;7.70;99.90;;;;;;1993171;71;25183;-88
2023/10/18 09:01:02;;;;;;;0.83;0.40;;;7.10;99.90;;;;;;1946366;72;26961;-87
2023/10/18 09:03:28;;;;;;;0.30;0.30;;;7.00;99.90;;;;;;1941449;73;25329;-89
2023/10/18 09:09:05;;;;;;;0.30;0.30;;;6.90;99.90;;;;;;1957062;72;27707;-87
2023/10/18 09:11:52;;;;;;;0.20;0.20;;;6.90;99.90;;;;;;1926125;73;25229;-89
2023/10/18 09:14:41;;;;;;;0.30;0.30;;;6.90;99.90;;;;;;1929052;74;25308;-87
2023/10/18 09:17:30;;;;;;;1.20;0.40;;;6.70;99.90;;;;;;1930940;74;26464;-87
2023/10/18 09:20:25;;;;;;;0.20;0.20;;;6.70;99.90;;;;;;1927976;74;25158;-87
2023/10/18 09:23:19;;;;;;;0.40;0.40;;;6.70;99.90;;;;;;1927502;73;25705;-88
2023/10/18 09:26:12;;;;;;;0.40;0.40;;;6.70;99.90;;;;;;1933224;74;25166;-88
2023/10/18 09:29:02;;;;;;;1.13;0.47;;;6.80;99.90;;;;;;1931180;72;25291;-88
2023/10/18 09:31:54;;;;;;;0.47;0.40;;;6.90;99.90;;;;;;1933061;74;25288;-88
2023/10/18 09:34:44;;;;;;;0.30;0.30;;;7.00;99.90;;;;;;1931370;74;25262;-88
2023/10/18 09:37:35;;;;;;;0.30;0.30;;;7.00;99.90;;;;;;1927401;74;25188;-88
2023/10/18 09:40:26;;;;;;;0.30;0.30;;;7.10;99.90;;;;;;1921749;74;25234;-88
2023/10/18 09:43:16;;;;;;;0.33;0.33;;;7.10;99.90;;;;;;1917569;73;25376;-88
2023/10/18 09:46:05;;;;;;;0.67;0.67;;;7.20;99.90;;;;;;1867438;75;25289;-88
2023/10/18 09:52:07;;;;;;;0.30;0.30;;;7.10;99.90;;;;;;1904982;73;25254;-88
2023/10/18 09:54:59;;;;;;;0.40;0.30;;;7.10;99.90;;;;;;1905266;74;25219;-88
2023/10/18 09:57:59;;;;;;;0.20;0.20;;;7.20;99.90;;;;;;1894567;73;25326;-88
2023/10/18 10:00:42;;;;;;;0.20;0.20;;;7.10;99.90;;;;;;1878152;75;25259;-88
2023/10/18 10:03:35;;;;;;;0.20;0.20;;;7.20;99.90;;;;;;1907339;74;25240;-88
2023/10/18 10:06:24;;;;;;;0.30;0.30;;;7.10;99.90;;;;;;1880446;75;25324;-88
2023/10/18 10:09:14;;;;;;;0.30;0.30;;;7.10;99.90;;;;;;1905124;73;25380;-88
2023/10/18 10:12:08;;;;;;;0.27;0.27;;;7.10;99.90;;;;;;1922924;74;25241;-88
2023/10/18 10:14:53;;;;;;;0.20;0.20;;;7.10;99.90;;;;;;1915949;74;25222;-88
2023/10/18 10:17:45;;;;;;;0.33;0.33;;;7.10;99.90;;;;;;1906271;74;25668;-88
2023/10/18 10:20:40;;;;;;;0.20;0.20;;;7.10;99.90;;;;;;1907646;74;25703;-88
2023/10/18 10:26:15;;;;;;;2.73;0.40;;;7.20;99.90;;;;;;1921514;72;27026;-87
2023/10/18 10:29:33;;;;;;;0.20;0.20;;;7.30;99.90;;;;;;1916679;74;25229;-87
2023/10/18 10:32:05;;;;;;;0.40;0.40;;;7.20;99.90;;;;;;1911537;74;25814;-88
2023/10/18 10:35:15;;;;;;;0.20;0.20;;;7.30;99.90;;;;;;1907764;74;25361;-87
2023/10/18 10:38:13;;;;;;;0.43;0.43;;;7.30;99.90;;;;;;1910104;74;25688;-87
2023/10/18 10:41:19;;;;;;;0.30;0.30;;;7.30;99.90;;;;;;1910891;74;25739;-87
2023/10/18 10:44:21;;;;;;;0.37;0.37;;;7.30;99.90;;;;;;1880240;74;25369;-89
2023/10/18 10:47:32;;;;;;;0.27;0.27;;;7.10;99.90;;;;;;1871205;75;25272;-87
2023/10/18 10:53:44;;;;;;;0.30;0.30;;;7.10;99.90;;;;;;1929791;72;27087;-87
2023/10/18 10:56:50;;;;;;;0.27;0.27;;;7.10;99.90;;;;;;1860619;75;25188;-87
2023/10/18 10:59:41;;;;;;;0.20;0.20;;;7.10;99.90;;;;;;1838594;76;25288;-89
2023/10/18 11:02:40;;;;;;;0.20;0.20;;;7.20;99.90;;;;;;1874619;75;25266;-89
2023/10/18 11:05:30;;;;;;;0.30;0.30;;;7.20;99.90;;;;;;1869241;75;25163;-89
2023/10/18 11:08:19;;;;;;;0.30;0.30;;;7.10;99.90;;;;;;1863038;75;25228;-89
2023/10/18 11:11:07;;;;;;;0.30;0.30;;;7.20;99.90;;;;;;1867895;75;25755;-87
2023/10/18 11:13:56;;;;;;;0.30;0.30;;;7.20;99.90;;;;;;1870508;75;25322;-89
2023/10/18 11:16:48;;;;;;;0.40;0.40;;;7.10;99.90;;;;;;1874623;75;25253;-89
2023/10/18 11:19:40;;;;;;;0.40;0.40;;;7.00;99.90;;;;;;1850582;76;25276;-86
2023/10/18 11:22:29;;;;;;;0.30;0.30;;;6.90;99.90;;;;;;1877281;75;25729;-89
2023/10/18 11:25:30;;;;;;;0.37;0.37;;;6.70;99.90;;;;;;1844243;76;25361;-89
2023/10/18 11:28:21;;;;;;;0.20;0.20;;;6.70;99.90;;;;;;1802594;77;25713;-89
2023/10/18 11:31:11;;;;;;;0.30;0.30;;;6.70;99.90;;;;;;1908902;75;25244;-89
2023/10/18 11:34:05;;;;;;;0.23;0.23;;;6.70;99.90;;;;;;1864748;75;25610;-89
2023/10/18 11:36:50;;;;;;;0.33;0.33;;;6.60;99.90;;;;;;1845852;76;25285;-87
2023/10/18 11:39:40;;;;;;;0.90;0.40;;;6.70;99.90;;;;;;1867305;75;25195;-88
2023/10/18 11:58:14;;;;;;;0.60;0.60;;;6.60;99.90;;;;;;1933673;72;26970;-87
2023/10/18 12:01:05;;;;;;;13.80;6.03;;;6.70;99.90;;;;;;1936373;72;25290;-87
2023/10/18 12:03:55;;;;;;;2.43;1.60;;;6.80;99.90;;;;;;1902622;73;25639;-87
2023/10/18 12:06:44;;;;;;;0.77;0.77;;;6.90;99.90;;;;;;1893827;73;25270;-87
2023/10/18 12:09:42;;;;;;;3.97;2.73;;;6.80;99.90;;;;;;1907668;73;25243;-87
2023/10/18 12:15:06;;;;;;;4.53;3.87;;;6.80;99.90;;;;;;1939282;72;27029;-87
2023/10/18 12:17:55;;;;;;;0.67;0.67;;;6.80;99.90;;;;;;1922038;73;25353;-87
2023/10/18 12:20:44;;;;;;;0.93;0.93;;;6.80;99.90;;;;;;1923232;73;25252;-88
2023/10/18 12:23:35;;;;;;;0.50;0.50;;;6.90;99.90;;;;;;1923445;73;25157;-88
2023/10/18 12:26:24;;;;;;;0.40;0.40;;;6.80;99.90;;;;;;1925469;73;25662;-88
2023/10/18 12:29:16;;;;;;;0.47;0.47;;;6.90;99.90;;;;;;1928962;73;25271;-88
2023/10/18 12:32:19;;;;;;;0.20;0.20;;;6.90;99.90;;;;;;1940079;73;25775;-88
2023/10/18 12:37:54;;;;;;;0.33;0.33;;;6.70;99.90;;;;;;1927131;72;27714;-87
2023/10/18 12:40:41;;;;;;;0.40;0.40;;;6.70;99.90;;;;;;1896883;75;25925;-89
2023/10/18 12:43:32;;;;;;;0.47;0.47;;;6.90;99.90;;;;;;1900226;74;25271;-89
2023/10/18 12:46:22;;;;;;;0.40;0.40;;;6.90;99.90;;;;;;1893029;74;25269;-87
2023/10/18 12:49:11;;;;;;;0.30;0.30;;;7.00;99.90;;;;;;1908902;74;25879;-87
2023/10/18 12:54:51;;;;;;;0.33;0.33;;;7.00;99.90;;;;;;1946434;72;27108;-87
2023/10/18 12:57:42;;;;;;;0.40;0.40;;;6.80;99.90;;;;;;1937619;73;25321;-87
2023/10/18 13:00:42;;;;;;;0.67;0.50;;;6.70;99.90;;;;;;1918423;73;25287;-89
2023/10/18 13:03:31;;;;;;;4.00;1.60;;;6.70;99.90;;;;;;1925924;73;25824;-89
2023/10/18 13:06:16;;;;;;;0.87;0.87;;;6.50;99.90;;;;;;1925211;73;25217;-87
2023/10/18 13:09:18;;;;;;;0.53;0.53;;;6.60;99.90;;;;;;1926564;73;25700;-87
2023/10/18 13:12:08;;;;;;;2.63;0.60;;;6.70;99.90;;;;;;1933338;73;25241;-87
2023/10/18 13:14:57;;;;;;;0.80;0.80;;;6.70;99.90;;;;;;1916426;73;25284;-89
2023/10/18 13:17:45;;;;;;;0.93;0.50;;;6.70;99.90;;;;;;1918908;73;25235;-89
2023/10/18 13:20:36;;;;;;;0.50;0.50;;;6.70;99.90;;;;;;1917892;73;25280;-89
2023/10/18 13:23:27;;;;;;;0.63;0.63;;;6.70;99.90;;;;;;1929133;73;25294;-87
2023/10/18 13:26:18;;;;;;;0.90;0.70;;;6.70;99.90;;;;;;1934670;73;25217;-89
2023/10/18 13:29:14;;;;;;;0.50;0.50;;;6.70;99.90;;;;;;1923477;73;25748;-87
2023/10/18 13:31:59;;;;;;;27.13;5.60;;;6.60;99.90;;;;;;1927816;73;25218;-89
2023/10/18 13:37:28;;;;;;;0.60;0.60;;;6.50;99.90;;;;;;1957046;72;27081;-87
2023/10/18 13:43:00;;;;;;;3.27;1.70;;;6.40;99.90;;;;;;1915021;72;27141;-87
2023/10/18 13:45:58;;;;;;;0.60;0.60;;;6.50;99.90;;;;;;1876575;75;26564;-88
2023/10/18 13:48:50;;;;;;;0.50;0.50;;;6.50;99.90;;;;;;1866361;75;25750;-89
2023/10/18 13:54:24;;;;;;;0.87;0.80;;;6.30;99.90;;;;;;1953047;72;26938;-87
2023/10/18 13:57:16;;;;;;;0.77;0.77;;;6.30;99.90;;;;;;1925543;74;26491;-89
2023/10/18 14:00:06;;;;;;;0.50;0.50;;;6.30;99.90;;;;;;1921784;74;25768;-87
2023/10/18 14:02:55;;;;;;;0.60;0.60;;;6.40;99.90;;;;;;1918183;73;25252;-89
2023/10/18 14:05:45;;;;;;;0.60;0.60;;;6.40;99.90;;;;;;1924882;73;25269;-86
2023/10/18 14:08:34;;;;;;;2.27;0.87;;;6.50;99.90;;;;;;1925944;72;25270;-89
2023/10/18 14:11:23;;;;;;;0.80;0.80;;;6.50;99.90;;;;;;1910714;73;25297;-87
2023/10/18 14:14:12;;;;;;;0.83;0.80;;;6.60;99.90;;;;;;1931413;74;25792;-89
2023/10/18 14:17:03;;;;;;;0.80;0.80;;;6.60;99.90;;;;;;1929553;73;25235;-89
2023/10/18 14:19:55;;;;;;;0.77;0.77;;;6.70;99.90;;;;;;1925273;73;25722;-87
2023/10/18 14:22:44;;;;;;;0.70;0.70;;;6.60;99.90;;;;;;1923326;73;25952;-89
2023/10/18 14:28:24;;;;;;;2.53;1.60;;;6.60;99.90;;;;;;1941613;72;26982;-87
2023/10/18 14:31:13;;;;;;;2.03;1.60;;;6.60;99.90;;;;;;1932870;73;25717;-87
2023/10/18 14:34:01;;;;;;;4.13;1.57;;;6.60;99.90;;;;;;1907230;75;25613;-88
2023/10/18 14:36:50;;;;;;;2.63;1.43;;;6.60;99.90;;;;;;1895963;75;25386;-88
2023/10/18 14:39:39;;;;;;;1.03;0.97;;;6.60;99.90;;;;;;1905644;75;25224;-87
2023/10/18 14:42:29;;;;;;;3.90;1.27;;;6.60;99.90;;;;;;1849646;76;25237;-87
2023/10/18 14:48:03;;;;;;;3.60;1.00;;;6.60;99.90;;;;;;1914801;74;27060;-87
2023/10/18 15:24:55;;;;;;;5.83;2.40;;;6.20;99.90;;;;;;1850760;76;28310;-91
2023/10/18 15:56:13;;;;;;;3.60;2.10;;;5.40;99.90;;;;;;1939143;72;28142;-92
2023/10/18 17:30:53;;;;;;;16.10;6.77;;;4.10;99.90;;;;;;1918312;74;26674;-90
2023/10/18 17:36:34;;;;;;;17.90;6.83;;;4.00;99.90;;;;;;2025292;69;27544;-90
2023/10/18 17:39:22;;;;;;;15.10;6.13;;;3.90;99.90;;;;;;1995109;71;25250;-90
2023/10/18 17:42:11;;;;;;;13.33;6.80;;;3.90;99.90;;;;;;1998609;70;25282;-89
2023/10/18 17:47:43;;;;;;;15.20;6.60;;;3.40;99.90;;;;;;1944848;72;27040;-90
2023/10/18 17:50:32;;;;;;;14.37;6.70;;;3.40;99.90;;;;;;1926569;73;25279;-90
2023/10/18 17:53:21;;;;;;;13.77;6.50;;;3.40;99.90;;;;;;1928614;73;25739;-90
2023/10/18 17:59:04;;;;;;;17.70;8.10;;;3.40;99.90;;;;;;1949301;72;27106;-90
2023/10/18 18:01:52;;;;;;;15.73;7.67;;;3.30;99.90;;;;;;1919842;73;25195;-90
2023/10/18 18:04:42;;;;;;;19.37;8.53;;;3.30;99.90;;;;;;1916835;73;25360;-91
2023/10/18 18:10:17;;;;;;;28.53;10.30;;;3.20;99.90;;;;;;1952758;72;27154;-90
2023/10/18 18:13:06;;;;;;;24.80;8.90;;;3.20;99.90;;;;;;1921838;73;25734;-91
2023/10/18 18:15:57;;;;;;;21.40;8.50;;;3.20;99.90;;;;;;1921764;73;25165;-91
2023/10/18 18:18:47;;;;;;;14.27;6.80;;;3.20;99.90;;;;;;1887973;75;25203;-91
2023/10/18 18:24:27;;;;;;;13.53;6.53;;;3.10;99.90;;;;;;1948475;72;27087;-89
2023/10/18 18:27:19;;;;;;;14.30;5.47;;;3.20;99.90;;;;;;1933454;73;25202;-88
2023/10/18 18:30:10;;;;;;;8.90;4.57;;;3.30;99.90;;;;;;1922471;73;25301;-92
2023/10/18 18:35:50;;;;;;;10.67;4.30;;;3.50;99.90;;;;;;1953210;72;27061;-90
2023/10/18 18:38:38;;;;;;;7.67;3.97;;;3.50;99.90;;;;;;1928434;73;25200;-90
2023/10/18 18:41:27;;;;;;;5.13;3.00;;;3.60;99.90;;;;;;1919106;73;25225;-90
2023/10/18 18:44:15;;;;;;;3.47;2.23;;;3.60;99.90;;;;;;1911485;74;25176;-90
2023/10/18 18:47:05;;;;;;;85.27;27.30;;;3.70;99.90;;;;;;1907399;73;25881;-90
2023/10/18 18:49:53;;;;;;;23.93;9.33;;;3.70;99.90;;;;;;1908373;73;25222;-90
2023/10/18 18:55:22;;;;;;;6.23;4.33;;;3.90;99.90;;;;;;1863891;75;27146;-90
2023/10/18 18:58:11;;;;;;;3.63;2.57;;;3.90;99.90;;;;;;1784372;79;25287;-92
2023/10/18 19:01:01;;;;;;;14.07;10.93;;;4.00;99.90;;;;;;1803840;78;25242;-92
2023/10/18 19:03:50;;;;;;;6.00;2.57;;;4.00;99.90;;;;;;1817159;78;25219;-92
2023/10/18 19:06:40;;;;;;;5.93;3.27;;;4.00;99.90;;;;;;1810006;78;25351;-91
2023/10/18 19:09:29;;;;;;;3.43;2.00;;;4.00;99.90;;;;;;1815751;78;25669;-91
2023/10/18 19:12:20;;;;;;;7.63;2.73;;;4.10;99.90;;;;;;1813006;78;25649;-91
2023/10/18 19:15:10;;;;;;;5.60;2.57;;;4.10;99.90;;;;;;1805691;78;25293;-91
2023/10/18 19:18:00;;;;;;;2.57;1.93;;;4.10;99.90;;;;;;1794040;78;25345;-91
2023/10/18 19:20:49;;;;;;;3.53;1.73;;;4.10;99.90;;;;;;1790740;78;25339;-91
2023/10/18 19:23:39;;;;;;;3.13;1.70;;;4.10;99.90;;;;;;1797177;78;25719;-91
2023/10/18 19:26:28;;;;;;;1.57;1.40;;;4.10;99.90;;;;;;1803325;78;25290;-90
2023/10/18 19:32:02;;;;;;;3.87;1.37;;;4.00;99.90;;;;;;2036587;69;27573;-92
2023/10/18 19:34:51;;;;;;;1.93;1.27;;;4.00;99.90;;;;;;2008345;71;25226;-91
2023/10/18 19:55:19;;;;;;;2.00;1.60;;;3.80;99.90;;;;;;1926225;72;27189;-90
2023/10/18 19:58:08;;;;;;;1.00;1.00;;;3.80;99.90;;;;;;1947338;72;25708;-90
2023/10/18 20:00:56;;;;;;;1.37;1.27;;;3.70;99.90;;;;;;1931744;72;25273;-89
2023/10/18 20:03:45;;;;;;;2.33;1.47;;;3.70;99.90;;;;;;1934468;73;25651;-90